Startpagina
METAR-TAF:

METAR-TAF

Vliegvelden :

Aeropuerto Almirante Padilla

Riohacha, Colombia

breedte: 11-32N, lengte: 072-56W, hoogte: 4 m

Actueel weer

Dit bericht is 22 uur en het 52 minuten geleden gemaakt, om 20:00 UTC
Wind 8 kt uit het noorden
Temperatuur 30°C
Vochtigheid 75%
Druk 1009 hPa
Zicht 10 km of meer
Weinig wolken op 1500 ft
Verspreide wolken op 10000 ft
buien in de omgeving

METAR: SKRH 182000Z 01008KT 9999 VCSH FEW015 SCT100 30/25 A2979 RMK VCSH/SE

Tijdstip: 13:52 (18:52 UTC)


TAF: ontbreekt

Waarnemingen en weersverwachtingen van meer dan 4000 vliegvelden (METAR en TAF).

De beschikbare stations zijn de gele en rode punten op de kaart.

Ga met uw muis naar het station om de naam te zien.

Klik dan om waarnemingen en weersverwachtingen te zien.

kaart wijzigen: klik op de groene knoppen met een zwart kruis om in te zoomen, op de groene knop met een streepje om uit te zoomen of op de groene pijlen voor aangrenzende kaarten.


METAR-TAF: